<?xml version="1.0" encoding="UTF-8" standalone="no" ?>
<gpx xmlns="http://www.topografix.com/GPX/1/1" xmlns:xsi="http://www.w3.org/2001/XMLSchema-instance" xsi:schemaLocation="http://www.topografix.com/GPX/1/1 http://www.topografix.com/GPX/1/1/gpx.xsd" version="1.1" creator="VisuGPX - https://www.visugpx.com">
  <metadata>
    <name>jour4</name>
  </metadata>
  <trk>
    <name><![CDATA[Randonnée du 18/04/2018 à 18:01]]></name>
    <trkseg>
      <trkpt lat="48.01759" lon="7.01904">
        <ele>1064</ele>
        <time>2018-06-03T13:54:34+02:00</time>
      </trkpt>
      <trkpt lat="48.01782" lon="7.01848">
        <ele>1072</ele>
        <time>2018-06-03T13:54:39+02:00</time>
      </trkpt>
      <trkpt lat="48.01725" lon="7.01664">
        <ele>1122</ele>
        <time>2018-06-03T13:54:44+02:00</time>
      </trkpt>
      <trkpt lat="48.01719" lon="7.01604">
        <ele>1134</ele>
        <time>2018-06-03T13:54:49+02:00</time>
      </trkpt>
      <trkpt lat="48.01587" lon="7.01419">
        <ele>1148</ele>
        <time>2018-06-03T13:54:54+02:00</time>
      </trkpt>
      <trkpt lat="48.01504" lon="7.01351">
        <ele>1149</ele>
        <time>2018-06-03T13:54:59+02:00</time>
      </trkpt>
      <trkpt lat="48.01487" lon="7.01218">
        <ele>1158</ele>
        <time>2018-06-03T13:55:04+02:00</time>
      </trkpt>
      <trkpt lat="48.01518" lon="7.01286">
        <ele>1163</ele>
        <time>2018-06-03T13:55:09+02:00</time>
      </trkpt>
      <trkpt lat="48.01524" lon="7.01248">
        <ele>1168</ele>
        <time>2018-06-03T13:55:14+02:00</time>
      </trkpt>
      <trkpt lat="48.01679" lon="7.01333">
        <ele>1197</ele>
        <time>2018-06-03T13:55:19+02:00</time>
      </trkpt>
      <trkpt lat="48.01774" lon="7.01325">
        <ele>1216</ele>
        <time>2018-06-03T13:55:24+02:00</time>
      </trkpt>
      <trkpt lat="48.01877" lon="7.01213">
        <ele>1242</ele>
        <time>2018-06-03T13:55:29+02:00</time>
      </trkpt>
      <trkpt lat="48.01963" lon="7.01119">
        <ele>1263</ele>
        <time>2018-06-03T13:55:34+02:00</time>
      </trkpt>
      <trkpt lat="48.01992" lon="7.0102">
        <ele>1278</ele>
        <time>2018-06-03T13:55:39+02:00</time>
      </trkpt>
      <trkpt lat="48.02006" lon="7.00831">
        <ele>1307</ele>
        <time>2018-06-03T13:55:44+02:00</time>
      </trkpt>
      <trkpt lat="48.02078" lon="7.00621">
        <ele>1322</ele>
        <time>2018-06-03T13:55:49+02:00</time>
      </trkpt>
      <trkpt lat="48.02095" lon="7.00484">
        <ele>1330</ele>
        <time>2018-06-03T13:55:54+02:00</time>
      </trkpt>
      <trkpt lat="48.02247" lon="7.00402">
        <ele>1330</ele>
        <time>2018-06-03T13:55:59+02:00</time>
      </trkpt>
      <trkpt lat="48.02451" lon="7.00402">
        <ele>1321</ele>
        <time>2018-06-03T13:56:04+02:00</time>
      </trkpt>
      <trkpt lat="48.02592" lon="7.00595">
        <ele>1308</ele>
        <time>2018-06-03T13:56:09+02:00</time>
      </trkpt>
      <trkpt lat="48.02798" lon="7.0078">
        <ele>1285</ele>
        <time>2018-06-03T13:56:14+02:00</time>
      </trkpt>
      <trkpt lat="48.02887" lon="7.00754">
        <ele>1281</ele>
        <time>2018-06-03T13:56:19+02:00</time>
      </trkpt>
      <trkpt lat="48.0289" lon="7.00715">
        <ele>1280</ele>
        <time>2018-06-03T13:56:24+02:00</time>
      </trkpt>
      <trkpt lat="48.03031" lon="7.0081">
        <ele>1283</ele>
        <time>2018-06-03T13:56:29+02:00</time>
      </trkpt>
      <trkpt lat="48.03214" lon="7.0087">
        <ele>1295</ele>
        <time>2018-06-03T13:56:34+02:00</time>
      </trkpt>
      <trkpt lat="48.0347" lon="7.01072">
        <ele>1271</ele>
        <time>2018-06-03T13:56:39+02:00</time>
      </trkpt>
      <trkpt lat="48.03745" lon="7.01072">
        <ele>1283</ele>
        <time>2018-06-03T13:56:44+02:00</time>
      </trkpt>
      <trkpt lat="48.03961" lon="7.01085">
        <ele>1289</ele>
        <time>2018-06-03T13:56:49+02:00</time>
      </trkpt>
      <trkpt lat="48.03995" lon="7.00986">
        <ele>1271</ele>
        <time>2018-06-03T13:56:54+02:00</time>
      </trkpt>
      <trkpt lat="48.04047" lon="7.00831">
        <ele>1261</ele>
        <time>2018-06-03T13:56:59+02:00</time>
      </trkpt>
      <trkpt lat="48.04061" lon="7.00638">
        <ele>1242</ele>
        <time>2018-06-03T13:57:04+02:00</time>
      </trkpt>
      <trkpt lat="48.04181" lon="7.00376">
        <ele>1217</ele>
        <time>2018-06-03T13:57:09+02:00</time>
      </trkpt>
      <trkpt lat="48.04268" lon="7.00321">
        <ele>1205</ele>
        <time>2018-06-03T13:57:14+02:00</time>
      </trkpt>
      <trkpt lat="48.04253" lon="7.00291">
        <ele>1201</ele>
        <time>2018-06-03T13:57:19+02:00</time>
      </trkpt>
      <trkpt lat="48.0421" lon="7.00273">
        <ele>1197</ele>
        <time>2018-06-03T13:57:24+02:00</time>
      </trkpt>
      <trkpt lat="48.04161" lon="7.00273">
        <ele>1194</ele>
        <time>2018-06-03T13:57:29+02:00</time>
      </trkpt>
      <trkpt lat="48.04236" lon="7.00128">
        <ele>1172</ele>
        <time>2018-06-03T13:57:34+02:00</time>
      </trkpt>
      <trkpt lat="48.04279" lon="7.00093">
        <ele>1166</ele>
        <time>2018-06-03T13:57:39+02:00</time>
      </trkpt>
      <trkpt lat="48.0427" lon="7.00012">
        <ele>1148</ele>
        <time>2018-06-03T13:57:44+02:00</time>
      </trkpt>
      <trkpt lat="48.04193" lon="6.99943">
        <ele>1129</ele>
        <time>2018-06-03T13:57:49+02:00</time>
      </trkpt>
      <trkpt lat="48.04127" lon="6.99922">
        <ele>1120</ele>
        <time>2018-06-03T13:57:54+02:00</time>
      </trkpt>
      <trkpt lat="48.04124" lon="6.9987">
        <ele>1116</ele>
        <time>2018-06-03T13:57:59+02:00</time>
      </trkpt>
      <trkpt lat="48.04107" lon="6.99857">
        <ele>1113</ele>
        <time>2018-06-03T13:58:04+02:00</time>
      </trkpt>
      <trkpt lat="48.04113" lon="6.99801">
        <ele>1115</ele>
        <time>2018-06-03T13:58:09+02:00</time>
      </trkpt>
      <trkpt lat="48.04084" lon="6.99728">
        <ele>1113</ele>
        <time>2018-06-03T13:58:14+02:00</time>
      </trkpt>
      <trkpt lat="48.04121" lon="6.99698">
        <ele>1124</ele>
        <time>2018-06-03T13:58:19+02:00</time>
      </trkpt>
      <trkpt lat="48.04081" lon="6.99608">
        <ele>1119</ele>
        <time>2018-06-03T13:58:24+02:00</time>
      </trkpt>
      <trkpt lat="48.04098" lon="6.9905">
        <ele>1123</ele>
        <time>2018-06-03T13:58:29+02:00</time>
      </trkpt>
      <trkpt lat="48.03981" lon="6.989">
        <ele>1110</ele>
        <time>2018-06-03T13:58:34+02:00</time>
      </trkpt>
      <trkpt lat="48.03966" lon="6.98625">
        <ele>1107</ele>
        <time>2018-06-03T13:58:39+02:00</time>
      </trkpt>
      <trkpt lat="48.03938" lon="6.98471">
        <ele>1095</ele>
        <time>2018-06-03T13:58:44+02:00</time>
      </trkpt>
      <trkpt lat="48.03943" lon="6.98321">
        <ele>1084</ele>
        <time>2018-06-03T13:58:49+02:00</time>
      </trkpt>
      <trkpt lat="48.03981" lon="6.98269">
        <ele>1088</ele>
        <time>2018-06-03T13:58:54+02:00</time>
      </trkpt>
      <trkpt lat="48.04001" lon="6.98007">
        <ele>1070</ele>
        <time>2018-06-03T13:58:59+02:00</time>
      </trkpt>
      <trkpt lat="48.04035" lon="6.97862">
        <ele>1061</ele>
        <time>2018-06-03T13:59:04+02:00</time>
      </trkpt>
      <trkpt lat="48.04141" lon="6.97806">
        <ele>1055</ele>
        <time>2018-06-03T13:59:09+02:00</time>
      </trkpt>
      <trkpt lat="48.04313" lon="6.97866">
        <ele>1059</ele>
        <time>2018-06-03T13:59:14+02:00</time>
      </trkpt>
      <trkpt lat="48.04431" lon="6.97862">
        <ele>1042</ele>
        <time>2018-06-03T13:59:19+02:00</time>
      </trkpt>
      <trkpt lat="48.04566" lon="6.97754">
        <ele>1000</ele>
        <time>2018-06-03T13:59:24+02:00</time>
      </trkpt>
      <trkpt lat="48.04626" lon="6.9775">
        <ele>997</ele>
        <time>2018-06-03T13:59:29+02:00</time>
      </trkpt>
      <trkpt lat="48.04718" lon="6.97673">
        <ele>976</ele>
        <time>2018-06-03T13:59:34+02:00</time>
      </trkpt>
      <trkpt lat="48.04767" lon="6.97587">
        <ele>960</ele>
        <time>2018-06-03T13:59:39+02:00</time>
      </trkpt>
      <trkpt lat="48.04784" lon="6.97351">
        <ele>973</ele>
        <time>2018-06-03T13:59:44+02:00</time>
      </trkpt>
      <trkpt lat="48.04712" lon="6.97214">
        <ele>973</ele>
        <time>2018-06-03T13:59:49+02:00</time>
      </trkpt>
      <trkpt lat="48.04727" lon="6.97076">
        <ele>986</ele>
        <time>2018-06-03T13:59:54+02:00</time>
      </trkpt>
      <trkpt lat="48.04692" lon="6.96935">
        <ele>993</ele>
        <time>2018-06-03T13:59:59+02:00</time>
      </trkpt>
      <trkpt lat="48.0473" lon="6.96763">
        <ele>997</ele>
        <time>2018-06-03T14:00:04+02:00</time>
      </trkpt>
      <trkpt lat="48.04735" lon="6.96613">
        <ele>994</ele>
        <time>2018-06-03T14:00:09+02:00</time>
      </trkpt>
      <trkpt lat="48.04801" lon="6.96428">
        <ele>992</ele>
        <time>2018-06-03T14:00:14+02:00</time>
      </trkpt>
      <trkpt lat="48.04816" lon="6.96334">
        <ele>991</ele>
        <time>2018-06-03T14:00:19+02:00</time>
      </trkpt>
      <trkpt lat="48.0475" lon="6.96299">
        <ele>986</ele>
        <time>2018-06-03T14:00:24+02:00</time>
      </trkpt>
      <trkpt lat="48.04672" lon="6.96175">
        <ele>974</ele>
        <time>2018-06-03T14:00:29+02:00</time>
      </trkpt>
      <trkpt lat="48.04557" lon="6.96132">
        <ele>983</ele>
        <time>2018-06-03T14:00:34+02:00</time>
      </trkpt>
      <trkpt lat="48.04483" lon="6.95965">
        <ele>979</ele>
        <time>2018-06-03T14:00:39+02:00</time>
      </trkpt>
      <trkpt lat="48.0448" lon="6.95887">
        <ele>968</ele>
        <time>2018-06-03T14:00:44+02:00</time>
      </trkpt>
      <trkpt lat="48.04411" lon="6.95832">
        <ele>977</ele>
        <time>2018-06-03T14:00:49+02:00</time>
      </trkpt>
      <trkpt lat="48.04428" lon="6.95763">
        <ele>970</ele>
        <time>2018-06-03T14:00:54+02:00</time>
      </trkpt>
      <trkpt lat="48.04595" lon="6.95656">
        <ele>966</ele>
        <time>2018-06-03T14:00:59+02:00</time>
      </trkpt>
      <trkpt lat="48.04612" lon="6.95617">
        <ele>964</ele>
        <time>2018-06-03T14:01:04+02:00</time>
      </trkpt>
      <trkpt lat="48.0458" lon="6.95488">
        <ele>970</ele>
        <time>2018-06-03T14:01:09+02:00</time>
      </trkpt>
      <trkpt lat="48.04646" lon="6.95167">
        <ele>962</ele>
        <time>2018-06-03T14:01:14+02:00</time>
      </trkpt>
      <trkpt lat="48.04738" lon="6.94999">
        <ele>962</ele>
        <time>2018-06-03T14:01:19+02:00</time>
      </trkpt>
      <trkpt lat="48.04873" lon="6.94913">
        <ele>957</ele>
        <time>2018-06-03T14:01:24+02:00</time>
      </trkpt>
      <trkpt lat="48.05011" lon="6.94793">
        <ele>946</ele>
        <time>2018-06-03T14:01:29+02:00</time>
      </trkpt>
      <trkpt lat="48.05114" lon="6.94609">
        <ele>931</ele>
        <time>2018-06-03T14:01:34+02:00</time>
      </trkpt>
      <trkpt lat="48.05143" lon="6.94536">
        <ele>922</ele>
        <time>2018-06-03T14:01:39+02:00</time>
      </trkpt>
      <trkpt lat="48.05191" lon="6.94579">
        <ele>916</ele>
        <time>2018-06-03T14:01:44+02:00</time>
      </trkpt>
      <trkpt lat="48.05214" lon="6.94523">
        <ele>912</ele>
        <time>2018-06-03T14:01:49+02:00</time>
      </trkpt>
    </trkseg>
  </trk>
</gpx>